Impacts METAR Board
IDs:

KMEM - Memphis Intl, TN, US

Updated at: 2200 UTC 01 Feb 2023
Potential Impact None Slight Moderate High
Time 01/10Z 01/11Z 01/12Z 01/13Z 01/14Z 01/15Z 01/16Z 01/17Z 01/18Z 01/19Z 01/20Z 01/21Z 01/22Z
Temp26 26 25 25 25 26 26 27 27 28 28 29 29
Dewpt24 23 23 22 22 23 23 24 24 25 26 26 26
Altim30.35 30.35 30.37 30.37 30.39 30.42 30.41 30.42 30.39 30.35 30.33 30.33 30.33
VIS10 10 10 10 10 10 10 10 10 7 10 10 7
CIG8 8 8 11 11 16 13 13 12 10 10 10 9
CoverOVCOVCOVCBKNBKNBKNOVCOVCOVCOVCOVCOVCOVC
FltCatIFRIFRIFRMVFRMVFRMVFRMVFRMVFRMVFRMVFRMVFRMVFRIFR
WX-------------------FZRA-FZRA-FZDZ--
WDir350201030302040103030036040
WSpd6 8 7 9 10 7 11 7 9 7 0 4 4
WGst-- -- -- -- -- -- -- -- -- -- -- -- --
Raw hourly METARs
KMEM 010954Z 35006KT 10SM OVC008 M03/M04 A3035 RMK AO2 SLP282 T10331044 $
KMEM 011054Z 02008KT 10SM OVC008 M03/M05 A3035 RMK AO2 SLP281 T10331050 $
KMEM 011154Z 01007KT 10SM OVC008 M04/M05 A3037 RMK AO2 SLP286 70040 T10391050 11033 21039 53008 $
KMEM 011254Z 03009KT 10SM BKN011 BKN110 M04/M06 A3037 RMK AO2 PRESFR SLP288 T10391056 $
KMEM 011354Z 03010KT 10SM BKN011 BKN016 M04/M06 A3039 RMK AO2 SLP295 T10391056 $
KMEM 011454Z 02007KT 10SM SCT011 BKN016 BKN150 M03/M05 A3042 RMK AO2 SLP303 T10331050 53016 $
KMEM 011554Z 04011KT 10SM BKN013 OVC120 M03/M05 A3041 RMK AO2 SLP300 T10331050 $
KMEM 011654Z 01007KT 10SM BKN013 OVC120 M03/M04 A3042 RMK AO2 SLP304 T10281044 $
KMEM 011754Z 03009KT 10SM BKN012 OVC110 M03/M04 A3039 RMK AO2 SLP294 T10281044 11028 21039 58008 $
KMEM 011854Z 03007KT 7SM -FZRA OVC010 M02/M04 A3035 RMK AO2 FZRAB54 SLP282 P0000 I1000 T10221039 $
KMEM 011954Z 00000KT 10SM -FZRA OVC010 M02/M03 A3033 RMK AO2 CIG 007V013 SLP273 P0003 I1002 T10221033 $
KMEM 012054Z 36004KT 10SM -FZDZ BKN010 OVC100 M02/M03 A3033 RMK AO2 FZRAE36FZDZB36 CIG 008V012 SLP275 P0001 60004 I1001 I3003 T10171033 55019 $
KMEM 012154Z 04004KT 7SM OVC009 M02/M03 A3033 RMK AO2 FZDZE07 SLP274 P0000 I1000 T10171033 $



Page loaded:  22:38 UTC  |   02:38 PM Pacific  |   03:38 PM Mountain  |   04:38 PM Central  |   05:38 PM Eastern

 

ADVISORIES

FORECASTS

FORECASTS

OBSERVATIONS

USER TOOLS

ABOUT US